Time;durP1;ratioP1;P1;durP2;ratioP2;P2;SDS_P1;SDS_P2;PMS_P1;PMS_P2;Temp;Humidity;BMP_temperature;BMP_pressure;BME280_temperature;BME280_humidity;BME280_pressure;Samples;Min_cycle;Max_cycle;Signal;HPM_P1;HPM_P2
2023/10/18 00:00:24;;;;;;;5.50;4.20;;;;;;;;;;5053279;28;20200;-82
2023/10/18 00:02:53;;;;;;;5.20;3.93;;;;;;;;;;5054289;28;20567;-82
2023/10/18 00:05:22;;;;;;;5.00;4.47;;;;;;;;;;5053602;28;20214;-82
2023/10/18 00:07:49;;;;;;;5.47;3.87;;;;;;;;;;5054335;28;20214;-82
2023/10/18 00:10:17;;;;;;;4.17;3.77;;;;;;;;;;5054655;28;20293;-82
2023/10/18 00:12:44;;;;;;;4.10;3.80;;;;;;;;;;5059007;28;20334;-82
2023/10/18 00:15:11;;;;;;;7.00;4.50;;;;;;;;;;5053819;28;20209;-83
2023/10/18 00:17:39;;;;;;;6.50;4.13;;;;;;;;;;5054222;28;20201;-82
2023/10/18 00:20:13;;;;;;;5.93;3.83;;;;;;;;;;5053751;28;20201;-83
2023/10/18 00:22:40;;;;;;;4.67;4.27;;;;;;;;;;5046631;28;20232;-83
2023/10/18 00:25:08;;;;;;;6.13;4.40;;;;;;;;;;5053564;28;20209;-82
2023/10/18 00:27:35;;;;;;;3.80;3.50;;;;;;;;;;5053710;28;20313;-82
2023/10/18 00:30:07;;;;;;;4.90;4.00;;;;;;;;;;5053791;28;20206;-84
2023/10/18 00:32:34;;;;;;;3.77;3.47;;;;;;;;;;5053564;28;20210;-83
2023/10/18 00:35:01;;;;;;;4.37;3.97;;;;;;;;;;5054032;28;20214;-82
2023/10/18 00:37:30;;;;;;;4.63;4.10;;;;;;;;;;5053347;28;20368;-82
2023/10/18 00:39:58;;;;;;;4.63;4.17;;;;;;;;;;5053809;28;20224;-82
2023/10/18 00:42:27;;;;;;;6.47;4.73;;;;;;;;;;5052990;28;20717;-82
2023/10/18 00:45:01;;;;;;;5.33;4.30;;;;;;;;;;5053977;28;20209;-82
2023/10/18 00:47:29;;;;;;;4.23;3.90;;;;;;;;;;5053493;28;20578;-82
2023/10/18 00:49:56;;;;;;;6.33;4.57;;;;;;;;;;5053846;28;20224;-82
2023/10/18 00:52:26;;;;;;;4.67;4.17;;;;;;;;;;5052812;28;20270;-82
2023/10/18 00:54:54;;;;;;;6.47;4.20;;;;;;;;;;5052632;28;20210;-82
2023/10/18 00:57:24;;;;;;;5.00;3.90;;;;;;;;;;5053052;28;20236;-82
2023/10/18 00:59:52;;;;;;;4.97;4.00;;;;;;;;;;5053729;28;20713;-82
2023/10/18 01:02:25;;;;;;;6.73;4.50;;;;;;;;;;5052610;28;20743;-82
2023/10/18 01:04:52;;;;;;;4.23;3.90;;;;;;;;;;5059146;28;20232;-82
2023/10/18 01:07:20;;;;;;;5.03;4.30;;;;;;;;;;5065466;28;20266;-82
2023/10/18 01:09:48;;;;;;;17.57;4.57;;;;;;;;;;5052054;28;20221;-82
2023/10/18 01:12:17;;;;;;;5.00;4.37;;;;;;;;;;5052132;28;20241;-82
2023/10/18 01:14:45;;;;;;;5.13;4.20;;;;;;;;;;5054417;28;20198;-82
2023/10/18 01:17:15;;;;;;;4.03;3.73;;;;;;;;;;5052542;28;20222;-82
2023/10/18 01:19:43;;;;;;;4.27;3.90;;;;;;;;;;5052974;28;20692;-82
2023/10/18 01:22:10;;;;;;;5.80;4.23;;;;;;;;;;5052272;28;20234;-82
2023/10/18 01:24:39;;;;;;;4.83;4.40;;;;;;;;;;5052656;28;20221;-81
2023/10/18 01:27:08;;;;;;;6.70;4.93;;;;;;;;;;5052505;28;20237;-81
2023/10/18 01:29:35;;;;;;;4.90;4.40;;;;;;;;;;5063800;28;20759;-81
2023/10/18 01:32:02;;;;;;;4.87;4.47;;;;;;;;;;5067133;28;20283;-82
2023/10/18 01:34:31;;;;;;;4.73;4.30;;;;;;;;;;5052670;28;20821;-81
2023/10/18 01:36:59;;;;;;;4.67;4.10;;;;;;;;;;5052501;28;20229;-81
2023/10/18 01:39:29;;;;;;;6.20;4.43;;;;;;;;;;5053976;28;20587;-81
2023/10/18 01:41:59;;;;;;;5.03;4.63;;;;;;;;;;5046234;28;20234;-81
2023/10/18 01:44:30;;;;;;;5.60;4.77;;;;;;;;;;5052607;28;20288;-81
2023/10/18 01:47:00;;;;;;;6.77;4.53;;;;;;;;;;5052097;28;20233;-82
2023/10/18 01:49:29;;;;;;;4.40;4.00;;;;;;;;;;5050890;28;20265;-81
2023/10/18 01:51:57;;;;;;;5.57;4.60;;;;;;;;;;5058944;28;20226;-81
2023/10/18 01:54:26;;;;;;;5.10;4.60;;;;;;;;;;5053682;28;20206;-81
2023/10/18 01:56:57;;;;;;;4.70;4.30;;;;;;;;;;5071912;28;20699;-81
2023/10/18 01:59:28;;;;;;;5.07;4.07;;;;;;;;;;5072410;28;20585;-81
2023/10/18 02:01:57;;;;;;;4.90;4.20;;;;;;;;;;5071721;28;20259;-81
2023/10/18 02:04:30;;;;;;;5.20;4.20;;;;;;;;;;5072252;28;20218;-81
2023/10/18 02:06:59;;;;;;;5.70;4.73;;;;;;;;;;5064382;28;20708;-81
2023/10/18 02:09:35;;;;;;;4.13;3.77;;;;;;;;;;5051069;28;20570;-81
2023/10/18 02:12:04;;;;;;;4.27;3.90;;;;;;;;;;5066246;28;20221;-81
2023/10/18 02:14:33;;;;;;;4.70;4.30;;;;;;;;;;5048905;28;20681;-81
2023/10/18 02:17:00;;;;;;;5.10;4.47;;;;;;;;;;5051729;28;20253;-82
2023/10/18 02:19:27;;;;;;;6.87;5.03;;;;;;;;;;5051716;28;20897;-82
2023/10/18 02:21:56;;;;;;;4.73;4.23;;;;;;;;;;5032957;28;20226;-82
2023/10/18 02:24:25;;;;;;;6.77;4.63;;;;;;;;;;5031786;28;20211;-82
2023/10/18 02:26:56;;;;;;;5.70;4.60;;;;;;;;;;5031417;28;20230;-82
2023/10/18 02:29:23;;;;;;;4.53;4.13;;;;;;;;;;5031506;28;20266;-82
2023/10/18 02:31:52;;;;;;;4.40;4.00;;;;;;;;;;5031114;28;20242;-82
2023/10/18 02:34:19;;;;;;;5.27;3.83;;;;;;;;;;5028645;28;20207;-82
2023/10/18 02:36:51;;;;;;;4.80;4.33;;;;;;;;;;5031106;28;20760;-82
2023/10/18 02:39:23;;;;;;;4.77;4.30;;;;;;;;;;5028084;28;20284;-82
2023/10/18 02:41:50;;;;;;;5.87;4.30;;;;;;;;;;5031078;28;20227;-82
2023/10/18 02:44:23;;;;;;;5.93;4.77;;;;;;;;;;5031624;28;20674;-82
2023/10/18 02:46:54;;;;;;;5.90;4.73;;;;;;;;;;5030560;28;20226;-82
2023/10/18 02:49:22;;;;;;;6.93;4.53;;;;;;;;;;5036043;28;20311;-81
2023/10/18 02:51:50;;;;;;;5.43;4.67;;;;;;;;;;5030765;28;20241;-82
2023/10/18 02:54:21;;;;;;;5.33;4.83;;;;;;;;;;5031633;28;20218;-82
2023/10/18 02:56:51;;;;;;;4.40;4.00;;;;;;;;;;5023481;28;20227;-82
2023/10/18 02:59:19;;;;;;;4.80;4.03;;;;;;;;;;5030900;28;20220;-82
2023/10/18 03:01:48;;;;;;;4.30;3.90;;;;;;;;;;5030447;28;20235;-82
2023/10/18 03:04:17;;;;;;;7.43;4.80;;;;;;;;;;5031267;28;20209;-82
2023/10/18 03:06:46;;;;;;;4.80;4.07;;;;;;;;;;5030567;28;20321;-82
2023/10/18 03:09:26;;;;;;;5.13;4.63;;;;;;;;;;5027351;28;20232;-82
2023/10/18 03:11:54;;;;;;;5.13;4.70;;;;;;;;;;5023266;28;20236;-82
2023/10/18 03:14:23;;;;;;;7.00;3.73;;;;;;;;;;5031026;28;20245;-82
2023/10/18 03:16:54;;;;;;;5.43;4.37;;;;;;;;;;5030302;28;20231;-82
2023/10/18 03:19:24;;;;;;;7.83;4.77;;;;;;;;;;5030076;28;20223;-81
2023/10/18 03:21:54;;;;;;;8.57;4.40;;;;;;;;;;5030017;28;20257;-81
2023/10/18 03:24:22;;;;;;;4.60;4.20;;;;;;;;;;5030944;28;20211;-81
2023/10/18 03:26:49;;;;;;;5.97;4.73;;;;;;;;;;5030404;28;20234;-82
2023/10/18 03:29:16;;;;;;;4.37;3.97;;;;;;;;;;5030282;28;20708;-81
2023/10/18 03:31:44;;;;;;;5.27;4.77;;;;;;;;;;5029879;28;20226;-81
2023/10/18 03:34:15;;;;;;;6.67;4.20;;;;;;;;;;5030872;28;20211;-82
2023/10/18 03:36:51;;;;;;;4.90;4.37;;;;;;;;;;5030269;28;20241;-82
2023/10/18 03:39:19;;;;;;;5.17;4.63;;;;;;;;;;5030342;28;20252;-81
2023/10/18 03:41:50;;;;;;;4.90;4.50;;;;;;;;;;5030066;28;20230;-82
2023/10/18 03:44:21;;;;;;;5.80;4.63;;;;;;;;;;5031019;28;20304;-82
2023/10/18 03:46:49;;;;;;;5.80;4.63;;;;;;;;;;5030283;28;20230;-81
2023/10/18 03:49:21;;;;;;;6.53;4.50;;;;;;;;;;5030533;28;20249;-81
2023/10/18 03:51:50;;;;;;;6.87;4.70;;;;;;;;;;5030256;28;20309;-82
2023/10/18 03:54:19;;;;;;;7.03;3.90;;;;;;;;;;5030768;28;20214;-81
2023/10/18 03:56:51;;;;;;;7.03;4.17;;;;;;;;;;5030099;28;20708;-81
2023/10/18 03:59:20;;;;;;;6.80;4.13;;;;;;;;;;5030867;28;20234;-82
2023/10/18 04:04:44;;;;;;;4.37;3.97;;;;;;;;;;5014991;28;20764;-82
2023/10/18 04:07:13;;;;;;;4.43;4.03;;;;;;;;;;5029616;28;20230;-81
2023/10/18 04:09:45;;;;;;;4.53;4.13;;;;;;;;;;5028989;28;20646;-81
2023/10/18 04:12:16;;;;;;;7.07;4.37;;;;;;;;;;5029875;28;20310;-81
2023/10/18 04:14:52;;;;;;;4.00;3.70;;;;;;;;;;5030251;28;20217;-81
2023/10/18 04:17:20;;;;;;;5.07;4.57;;;;;;;;;;5030086;28;20226;-81
2023/10/18 04:19:48;;;;;;;4.23;3.87;;;;;;;;;;5030342;28;20269;-81
2023/10/18 04:22:17;;;;;;;5.40;4.60;;;;;;;;;;5029882;28;20293;-81
2023/10/18 04:24:45;;;;;;;4.90;4.37;;;;;;;;;;5029565;28;20239;-81
2023/10/18 04:27:12;;;;;;;4.73;4.33;;;;;;;;;;5029781;28;20283;-81
2023/10/18 04:29:39;;;;;;;4.50;4.20;;;;;;;;;;5030794;28;20672;-81
2023/10/18 04:32:17;;;;;;;4.83;4.07;;;;;;;;;;5033379;28;20226;-81
2023/10/18 04:34:45;;;;;;;8.30;4.33;;;;;;;;;;5034065;28;20226;-81
2023/10/18 04:37:14;;;;;;;4.53;4.13;;;;;;;;;;5033039;28;20227;-81
2023/10/18 04:39:42;;;;;;;5.70;4.30;;;;;;;;;;5033739;28;20296;-81
2023/10/18 04:42:16;;;;;;;7.43;4.97;;;;;;;;;;5033190;28;20627;-81
2023/10/18 04:44:47;;;;;;;7.00;5.63;;;;;;;;;;5032992;28;20261;-81
2023/10/18 04:47:15;;;;;;;5.93;5.07;;;;;;;;;;5022337;28;20238;-83
2023/10/18 04:49:50;;;;;;;6.53;5.50;;;;;;;;;;5037692;28;20231;-83
2023/10/18 04:52:28;;;;;;;6.77;5.43;;;;;;;;;;5051319;28;20287;-81
2023/10/18 04:55:04;;;;;;;6.30;5.70;;;;;;;;;;5047539;28;20206;-82
2023/10/18 04:57:38;;;;;;;6.47;5.07;;;;;;;;;;5054074;28;20228;-82
2023/10/18 05:00:11;;;;;;;6.77;5.40;;;;;;;;;;5052921;28;20190;-83
2023/10/18 05:02:38;;;;;;;9.53;5.77;;;;;;;;;;5053451;28;20234;-83
2023/10/18 05:05:10;;;;;;;6.17;4.80;;;;;;;;;;5053094;28;20751;-82
2023/10/18 05:07:41;;;;;;;4.67;4.20;;;;;;;;;;5052810;28;20653;-82
2023/10/18 05:10:17;;;;;;;5.73;5.13;;;;;;;;;;5052624;28;20762;-82
2023/10/18 05:12:52;;;;;;;5.87;5.30;;;;;;;;;;5052913;28;20212;-83
2023/10/18 05:15:21;;;;;;;5.60;4.70;;;;;;;;;;5053001;28;20210;-83
2023/10/18 05:17:50;;;;;;;5.90;4.90;;;;;;;;;;5053011;28;20225;-83
2023/10/18 05:20:25;;;;;;;5.40;4.60;;;;;;;;;;5052632;28;20210;-83
2023/10/18 05:22:58;;;;;;;5.63;4.70;;;;;;;;;;5044985;28;20239;-82
2023/10/18 05:25:34;;;;;;;7.30;5.13;;;;;;;;;;5052256;28;20236;-83
2023/10/18 05:28:09;;;;;;;7.00;4.53;;;;;;;;;;5052288;28;20275;-83
2023/10/18 05:36:11;;;;;;;8.47;4.60;;;;;;;;;;5045325;28;20695;-85
2023/10/18 05:38:50;;;;;;;5.87;4.50;;;;;;;;;;5052472;28;20238;-85
2023/10/18 05:41:28;;;;;;;5.13;4.67;;;;;;;;;;5051650;28;20352;-83
2023/10/18 05:43:58;;;;;;;6.57;5.17;;;;;;;;;;5044846;28;20202;-85
2023/10/18 05:46:27;;;;;;;5.53;5.00;;;;;;;;;;5052380;28;20237;-85
2023/10/18 05:48:55;;;;;;;5.47;4.60;;;;;;;;;;5044627;28;20221;-84
2023/10/18 05:51:28;;;;;;;6.33;5.20;;;;;;;;;;5052137;28;20253;-85
2023/10/18 05:54:00;;;;;;;5.93;4.70;;;;;;;;;;5052724;28;20210;-84
2023/10/18 05:56:31;;;;;;;6.60;5.30;;;;;;;;;;5052112;28;20241;-84
2023/10/18 06:01:39;;;;;;;5.13;4.63;;;;;;;;;;5051160;28;20221;-85
2023/10/18 06:04:07;;;;;;;8.40;5.10;;;;;;;;;;5052448;28;20679;-85
2023/10/18 06:06:37;;;;;;;6.13;5.27;;;;;;;;;;5051586;28;20232;-84
2023/10/18 06:09:09;;;;;;;11.07;5.33;;;;;;;;;;5052466;28;20894;-86
2023/10/18 06:11:38;;;;;;;6.27;5.67;;;;;;;;;;5052059;28;20241;-86
2023/10/18 06:14:06;;;;;;;8.90;5.13;;;;;;;;;;5053303;28;20202;-85
2023/10/18 06:16:34;;;;;;;6.57;5.03;;;;;;;;;;5053114;28;20252;-85
2023/10/18 06:19:03;;;;;;;6.77;5.50;;;;;;;;;;5053459;28;20224;-85
2023/10/18 06:21:35;;;;;;;11.53;5.13;;;;;;;;;;5052162;28;20222;-85
2023/10/18 06:24:09;;;;;;;11.27;5.93;;;;;;;;;;5052361;28;20289;-86
2023/10/18 06:26:39;;;;;;;6.33;5.67;;;;;;;;;;5051815;28;20758;-86
2023/10/18 06:29:09;;;;;;;7.30;5.80;;;;;;;;;;5052068;28;20756;-86
2023/10/18 06:31:43;;;;;;;7.17;5.80;;;;;;;;;;5051552;28;20237;-85
2023/10/18 06:34:15;;;;;;;7.83;5.90;;;;;;;;;;5047792;28;20562;-85
2023/10/18 06:36:42;;;;;;;11.10;6.00;;;;;;;;;;5051572;28;20311;-83
2023/10/18 06:39:16;;;;;;;9.13;7.13;;;;;;;;;;5051632;28;20229;-84
2023/10/18 06:41:46;;;;;;;7.20;6.07;;;;;;;;;;5051096;28;20317;-84
2023/10/18 06:44:13;;;;;;;7.73;6.10;;;;;;;;;;5051981;28;20202;-84
2023/10/18 06:46:44;;;;;;;7.33;6.27;;;;;;;;;;5051293;28;20234;-84
2023/10/18 06:49:11;;;;;;;11.57;7.53;;;;;;;;;;5051443;28;20229;-83
2023/10/18 06:51:41;;;;;;;11.00;8.10;;;;;;;;;;5048399;28;20226;-83
2023/10/18 06:54:13;;;;;;;8.93;7.40;;;;;;;;;;5044176;28;20228;-83
2023/10/18 06:56:40;;;;;;;9.97;7.13;;;;;;;;;;5050703;28;20234;-83
2023/10/18 06:59:09;;;;;;;12.33;8.00;;;;;;;;;;5054288;28;20214;-83
2023/10/18 07:01:42;;;;;;;18.47;8.20;;;;;;;;;;5050962;28;20233;-83
2023/10/18 07:04:16;;;;;;;11.03;8.07;;;;;;;;;;5051352;28;20726;-83
2023/10/18 07:06:44;;;;;;;13.40;7.93;;;;;;;;;;5050737;28;20323;-84
2023/10/18 07:09:24;;;;;;;10.93;8.33;;;;;;;;;;5051110;28;20721;-84
2023/10/18 07:11:51;;;;;;;11.23;8.03;;;;;;;;;;5050026;28;20790;-83
2023/10/18 07:14:20;;;;;;;16.43;9.20;;;;;;;;;;5051439;28;20210;-83
2023/10/18 07:16:49;;;;;;;14.60;9.13;;;;;;;;;;5050618;28;20698;-83
2023/10/18 07:19:25;;;;;;;15.60;9.07;;;;;;;;;;5050916;28;20230;-83
2023/10/18 07:21:52;;;;;;;13.87;8.70;;;;;;;;;;5050620;28;20715;-83
2023/10/18 07:24:20;;;;;;;20.37;10.60;;;;;;;;;;5051233;28;20201;-83
2023/10/18 07:26:48;;;;;;;16.67;10.33;;;;;;;;;;5050624;28;20648;-83
2023/10/18 07:29:15;;;;;;;13.13;9.90;;;;;;;;;;5050798;28;20236;-83
2023/10/18 07:31:46;;;;;;;13.97;9.63;;;;;;;;;;5050363;28;20236;-83
2023/10/18 07:34:18;;;;;;;13.03;9.73;;;;;;;;;;5050883;28;20257;-82
2023/10/18 07:36:45;;;;;;;15.23;10.07;;;;;;;;;;5050312;28;20242;-83
2023/10/18 07:39:13;;;;;;;12.23;9.33;;;;;;;;;;5048054;28;20231;-82
2023/10/18 07:41:40;;;;;;;15.00;9.03;;;;;;;;;;5049855;28;20310;-83
2023/10/18 07:44:07;;;;;;;16.67;10.40;;;;;;;;;;5051299;28;20200;-83
2023/10/18 07:46:39;;;;;;;14.83;9.60;;;;;;;;;;5050402;28;20227;-83
2023/10/18 07:49:11;;;;;;;11.23;8.57;;;;;;;;;;5043606;28;20233;-83
2023/10/18 07:51:43;;;;;;;11.67;8.97;;;;;;;;;;5050225;28;20716;-83
2023/10/18 07:54:14;;;;;;;12.63;8.90;;;;;;;;;;5050963;28;20694;-83
2023/10/18 07:56:48;;;;;;;10.53;8.17;;;;;;;;;;5044925;28;20234;-83
2023/10/18 07:59:28;;;;;;;13.63;7.93;;;;;;;;;;5050635;28;20279;-83
2023/10/18 08:02:09;;;;;;;12.00;9.03;;;;;;;;;;5050183;28;20241;-83
2023/10/18 08:04:37;;;;;;;9.77;7.20;;;;;;;;;;5051662;28;20681;-84
2023/10/18 08:07:04;;;;;;;12.47;7.37;;;;;;;;;;5054453;28;20243;-84
2023/10/18 08:09:32;;;;;;;11.87;7.93;;;;;;;;;;5054613;28;20233;-83
2023/10/18 08:12:05;;;;;;;11.27;6.97;;;;;;;;;;5053686;28;20229;-84
2023/10/18 08:14:32;;;;;;;8.77;7.43;;;;;;;;;;5054969;28;20213;-85
2023/10/18 08:17:09;;;;;;;12.03;8.40;;;;;;;;;;5053832;28;20227;-85
2023/10/18 08:19:44;;;;;;;8.77;6.80;;;;;;;;;;5054784;28;20239;-85
2023/10/18 08:22:23;;;;;;;9.43;6.93;;;;;;;;;;5046781;28;20229;-85
2023/10/18 08:24:50;;;;;;;8.43;6.53;;;;;;;;;;5054708;28;20218;-85
2023/10/18 08:27:18;;;;;;;7.13;6.37;;;;;;;;;;5054027;28;20233;-84
2023/10/18 08:29:47;;;;;;;11.27;6.30;;;;;;;;;;5054134;28;20235;-84
2023/10/18 08:32:16;;;;;;;10.07;6.80;;;;;;;;;;5053669;28;20800;-84
2023/10/18 08:34:44;;;;;;;14.87;7.40;;;;;;;;;;5054190;28;20653;-84
2023/10/18 08:37:13;;;;;;;8.83;7.50;;;;;;;;;;5053821;28;20226;-84
2023/10/18 08:39:41;;;;;;;7.67;6.20;;;;;;;;;;5054221;28;20232;-84
2023/10/18 08:42:10;;;;;;;8.53;6.07;;;;;;;;;;5053595;28;20232;-84
2023/10/18 08:44:39;;;;;;;8.27;6.83;;;;;;;;;;5054245;28;20202;-84
2023/10/18 08:47:12;;;;;;;7.33;6.03;;;;;;;;;;5045702;28;20230;-84
2023/10/18 08:49:45;;;;;;;7.40;5.53;;;;;;;;;;5053853;28;20226;-84
2023/10/18 08:52:16;;;;;;;8.03;6.47;;;;;;;;;;5053455;28;20357;-84
2023/10/18 08:54:44;;;;;;;6.33;5.73;;;;;;;;;;5054034;28;20198;-84
2023/10/18 08:57:11;;;;;;;6.97;5.40;;;;;;;;;;5053281;28;20708;-84
2023/10/18 08:59:46;;;;;;;7.27;5.80;;;;;;;;;;5054040;28;20218;-84
2023/10/18 09:02:17;;;;;;;8.77;5.47;;;;;;;;;;5053236;28;20217;-84
2023/10/18 09:04:45;;;;;;;7.57;5.23;;;;;;;;;;5053589;28;20308;-84
2023/10/18 09:07:18;;;;;;;7.93;4.93;;;;;;;;;;5053317;28;20727;-85
2023/10/18 09:09:53;;;;;;;7.40;5.20;;;;;;;;;;5053767;28;20225;-85
2023/10/18 09:12:31;;;;;;;5.37;4.83;;;;;;;;;;5053095;28;20225;-86
2023/10/18 09:14:59;;;;;;;6.67;5.47;;;;;;;;;;5053664;28;20283;-85
2023/10/18 09:17:26;;;;;;;5.97;5.00;;;;;;;;;;5052036;28;20584;-84
2023/10/18 09:19:55;;;;;;;5.77;5.03;;;;;;;;;;5051127;28;20603;-84
2023/10/18 09:22:24;;;;;;;6.60;5.20;;;;;;;;;;5052834;28;20262;-84
2023/10/18 09:24:51;;;;;;;11.27;4.90;;;;;;;;;;5053164;28;20209;-83
2023/10/18 09:27:23;;;;;;;6.33;5.10;;;;;;;;;;5052823;28;20225;-84
2023/10/18 09:29:52;;;;;;;6.30;4.40;;;;;;;;;;5053007;28;20230;-84
2023/10/18 09:32:32;;;;;;;6.17;4.20;;;;;;;;;;5052509;28;20287;-84
2023/10/18 09:35:03;;;;;;;4.63;4.17;;;;;;;;;;5053104;28;20280;-84
2023/10/18 09:37:35;;;;;;;4.27;3.87;;;;;;;;;;5045812;28;20314;-84
2023/10/18 09:40:03;;;;;;;6.53;4.70;;;;;;;;;;5044425;28;20545;-84
2023/10/18 09:42:30;;;;;;;7.00;4.30;;;;;;;;;;5052416;28;20228;-84
2023/10/18 09:44:59;;;;;;;7.70;4.60;;;;;;;;;;5052820;28;20206;-84
2023/10/18 09:47:28;;;;;;;4.60;3.93;;;;;;;;;;5063941;28;20643;-84
2023/10/18 09:49:56;;;;;;;3.87;3.57;;;;;;;;;;5053329;28;20709;-84
2023/10/18 09:52:25;;;;;;;8.27;4.70;;;;;;;;;;5071706;28;20482;-84
2023/10/18 09:54:59;;;;;;;6.37;4.47;;;;;;;;;;5069545;28;20217;-84
2023/10/18 09:57:35;;;;;;;5.63;4.13;;;;;;;;;;5046255;28;20316;-84
2023/10/18 10:00:08;;;;;;;4.70;4.03;;;;;;;;;;5054370;28;20198;-84
2023/10/18 10:02:36;;;;;;;5.97;4.23;;;;;;;;;;5056468;28;20234;-84
2023/10/18 10:05:06;;;;;;;4.50;3.63;;;;;;;;;;5051401;28;20210;-84
2023/10/18 10:07:39;;;;;;;5.27;3.80;;;;;;;;;;5052492;28;20202;-84
2023/10/18 10:10:17;;;;;;;4.33;3.90;;;;;;;;;;5051056;28;20226;-84
2023/10/18 10:12:46;;;;;;;5.70;4.07;;;;;;;;;;5051976;28;20237;-83
2023/10/18 10:15:17;;;;;;;3.93;3.53;;;;;;;;;;5046186;28;20252;-85
2023/10/18 10:17:47;;;;;;;3.43;2.70;;;;;;;;;;5067550;28;20209;-84
2023/10/18 10:20:14;;;;;;;4.17;3.80;;;;;;;;;;5055933;28;20672;-84
2023/10/18 10:22:42;;;;;;;4.30;3.53;;;;;;;;;;5052245;28;20213;-84
2023/10/18 10:25:19;;;;;;;5.37;4.00;;;;;;;;;;5050759;28;20210;-84
2023/10/18 10:27:52;;;;;;;4.77;3.63;;;;;;;;;;5051113;28;20214;-84
2023/10/18 10:30:28;;;;;;;3.63;3.33;;;;;;;;;;5054674;28;20222;-84
2023/10/18 10:32:59;;;;;;;4.00;3.63;;;;;;;;;;5052631;28;20209;-84
2023/10/18 10:35:27;;;;;;;5.17;3.97;;;;;;;;;;5050574;28;20307;-85
2023/10/18 10:37:55;;;;;;;6.90;3.80;;;;;;;;;;5050033;28;20221;-84
2023/10/18 10:40:36;;;;;;;4.03;3.70;;;;;;;;;;5051877;28;20234;-84
2023/10/18 10:43:08;;;;;;;4.43;3.70;;;;;;;;;;5059013;28;20205;-83
2023/10/18 10:45:38;;;;;;;4.83;3.77;;;;;;;;;;5050874;28;20599;-84
2023/10/18 10:48:30;;;;;;;3.53;3.20;;;;;;;;;;5059044;28;20287;-84
2023/10/18 10:51:06;;;;;;;5.27;3.70;;;;;;;;;;5050903;28;20238;-84
2023/10/18 10:53:36;;;;;;;4.97;3.43;;;;;;;;;;5057770;28;20209;-84
2023/10/18 10:56:16;;;;;;;4.90;3.60;;;;;;;;;;5060604;28;20234;-83
2023/10/18 10:58:45;;;;;;;4.70;3.53;;;;;;;;;;5051672;28;20291;-83
2023/10/18 11:01:15;;;;;;;6.10;3.37;;;;;;;;;;5058316;28;20229;-84
2023/10/18 11:03:53;;;;;;;5.17;3.00;;;;;;;;;;5058431;28;20618;-84
2023/10/18 11:06:22;;;;;;;5.37;3.37;;;;;;;;;;5057537;28;20230;-84
2023/10/18 11:08:49;;;;;;;3.83;3.50;;;;;;;;;;5058552;28;20781;-83
2023/10/18 11:11:18;;;;;;;3.73;2.90;;;;;;;;;;5049500;28;20712;-84
2023/10/18 11:13:49;;;;;;;4.73;3.40;;;;;;;;;;5051177;28;20213;-84
2023/10/18 11:16:17;;;;;;;5.17;3.50;;;;;;;;;;5059075;28;20233;-84
2023/10/18 11:18:48;;;;;;;3.40;3.10;;;;;;;;;;5051353;28;20799;-83
2023/10/18 11:21:24;;;;;;;5.23;3.33;;;;;;;;;;5043022;28;20246;-84
2023/10/18 11:23:53;;;;;;;4.57;3.37;;;;;;;;;;5051498;28;20202;-84
2023/10/18 11:26:24;;;;;;;3.43;3.13;;;;;;;;;;5051247;28;20237;-82
2023/10/18 11:28:53;;;;;;;3.73;3.43;;;;;;;;;;5052006;28;20226;-84
2023/10/18 11:31:26;;;;;;;4.73;3.47;;;;;;;;;;5050369;28;20230;-83
2023/10/18 11:33:59;;;;;;;3.53;3.10;;;;;;;;;;5052072;28;20206;-84
2023/10/18 11:36:28;;;;;;;3.20;3.00;;;;;;;;;;5057222;28;20708;-82
2023/10/18 11:41:42;;;;;;;4.77;3.10;;;;;;;;;;5054812;28;20228;-83
2023/10/18 11:44:13;;;;;;;3.87;3.20;;;;;;;;;;5066033;28;20206;-81
2023/10/18 11:46:46;;;;;;;5.07;2.90;;;;;;;;;;5077595;28;20229;-82
2023/10/18 11:49:13;;;;;;;3.60;3.23;;;;;;;;;;5067825;28;20222;-82
2023/10/18 11:51:44;;;;;;;3.57;3.20;;;;;;;;;;5067589;28;20247;-81
2023/10/18 11:54:13;;;;;;;3.67;3.37;;;;;;;;;;5072806;28;20190;-82
2023/10/18 11:56:41;;;;;;;3.57;3.10;;;;;;;;;;5080311;28;20243;-81
2023/10/18 11:59:08;;;;;;;5.63;3.60;;;;;;;;;;5071803;28;20225;-81
2023/10/18 12:01:37;;;;;;;4.13;3.13;;;;;;;;;;5069085;28;20229;-83
2023/10/18 12:04:06;;;;;;;4.33;3.00;;;;;;;;;;5071747;28;20208;-82
2023/10/18 12:06:34;;;;;;;2.70;2.50;;;;;;;;;;5062490;28;20884;-83
2023/10/18 12:11:47;;;;;;;3.20;2.77;;;;;;;;;;5051049;28;20249;-83
2023/10/18 12:14:14;;;;;;;2.63;2.43;;;;;;;;;;5051454;28;20206;-83
2023/10/18 12:16:42;;;;;;;3.97;2.77;;;;;;;;;;5050905;28;20234;-83
2023/10/18 12:19:10;;;;;;;2.80;2.60;;;;;;;;;;5058342;28;20226;-83
2023/10/18 12:21:37;;;;;;;3.30;2.77;;;;;;;;;;5056147;28;20660;-83
2023/10/18 12:24:07;;;;;;;2.67;2.47;;;;;;;;;;5051867;28;20210;-83
2023/10/18 12:26:35;;;;;;;3.57;2.90;;;;;;;;;;5050126;28;20315;-83
2023/10/18 12:29:05;;;;;;;2.90;2.70;;;;;;;;;;5049656;28;20234;-83
2023/10/18 12:31:38;;;;;;;2.97;2.67;;;;;;;;;;5049373;28;20637;-83
2023/10/18 12:34:05;;;;;;;2.83;2.63;;;;;;;;;;5049826;28;20230;-83
2023/10/18 12:36:37;;;;;;;2.80;2.47;;;;;;;;;;5049724;28;20260;-83
2023/10/18 12:39:09;;;;;;;3.47;2.77;;;;;;;;;;5049717;28;20320;-83
2023/10/18 12:41:39;;;;;;;4.07;2.90;;;;;;;;;;5048982;28;20222;-83
2023/10/18 12:44:11;;;;;;;3.10;2.47;;;;;;;;;;5056239;28;20567;-83
2023/10/18 12:46:40;;;;;;;3.77;2.40;;;;;;;;;;5049685;28;20229;-83
2023/10/18 12:49:10;;;;;;;2.60;2.17;;;;;;;;;;5049714;28;20233;-83
2023/10/18 12:51:41;;;;;;;2.80;2.60;;;;;;;;;;5045214;28;20254;-83
2023/10/18 12:54:19;;;;;;;3.37;2.43;;;;;;;;;;5053520;28;20259;-83
2023/10/18 12:56:56;;;;;;;3.87;2.70;;;;;;;;;;5053050;28;20305;-83
2023/10/18 12:59:24;;;;;;;2.50;2.30;;;;;;;;;;5045797;28;20225;-83
2023/10/18 13:01:58;;;;;;;2.70;2.50;;;;;;;;;;5052660;28;20230;-83
2023/10/18 13:04:24;;;;;;;2.63;2.30;;;;;;;;;;5052329;28;20206;-83
2023/10/18 13:06:51;;;;;;;6.43;2.50;;;;;;;;;;5052784;28;20226;-83
2023/10/18 13:09:22;;;;;;;2.43;2.23;;;;;;;;;;5052643;28;20260;-83
2023/10/18 13:12:07;;;;;;;3.67;2.37;;;;;;;;;;5052276;28;20287;-83
2023/10/18 13:14:38;;;;;;;4.67;2.57;;;;;;;;;;5059385;28;20205;-83
2023/10/18 13:17:09;;;;;;;2.90;2.40;;;;;;;;;;5048407;28;20229;-83
2023/10/18 13:19:41;;;;;;;3.77;2.63;;;;;;;;;;5053243;28;20240;-83
2023/10/18 13:22:16;;;;;;;3.00;2.70;;;;;;;;;;5053824;28;20258;-83
2023/10/18 13:24:43;;;;;;;3.60;2.40;;;;;;;;;;5058012;28;20215;-83
2023/10/18 13:27:14;;;;;;;4.20;2.60;;;;;;;;;;5052159;28;20230;-84
2023/10/18 13:29:49;;;;;;;3.17;2.20;;;;;;;;;;5053275;28;20328;-83
2023/10/18 13:32:18;;;;;;;3.07;2.30;;;;;;;;;;5051854;28;20233;-83
2023/10/18 13:34:45;;;;;;;2.37;2.17;;;;;;;;;;5052570;28;20201;-83
2023/10/18 13:37:14;;;;;;;4.87;2.40;;;;;;;;;;5051802;28;20218;-83
2023/10/18 13:39:45;;;;;;;5.37;2.40;;;;;;;;;;5052356;28;20222;-83
2023/10/18 13:42:12;;;;;;;2.80;2.30;;;;;;;;;;5051994;28;20234;-83
2023/10/18 13:44:41;;;;;;;4.80;2.53;;;;;;;;;;5053543;28;20301;-83
2023/10/18 13:47:11;;;;;;;4.47;2.60;;;;;;;;;;5051694;28;20237;-83
2023/10/18 13:49:39;;;;;;;3.97;2.33;;;;;;;;;;5052193;28;20225;-83
2023/10/18 13:52:06;;;;;;;2.33;2.07;;;;;;;;;;5052987;28;20699;-83
2023/10/18 13:54:34;;;;;;;3.20;2.40;;;;;;;;;;5058945;28;20198;-82
2023/10/18 13:57:02;;;;;;;2.40;2.20;;;;;;;;;;5051547;28;20720;-83
2023/10/18 13:59:29;;;;;;;2.10;1.90;;;;;;;;;;5052242;28;20226;-83
2023/10/18 14:01:56;;;;;;;2.23;2.03;;;;;;;;;;5058981;28;20241;-83
2023/10/18 14:04:28;;;;;;;2.60;2.40;;;;;;;;;;5052457;28;20202;-83
2023/10/18 14:06:57;;;;;;;2.53;2.33;;;;;;;;;;5051626;28;20284;-83
2023/10/18 14:09:25;;;;;;;3.63;2.53;;;;;;;;;;5044057;28;20599;-82
2023/10/18 14:11:52;;;;;;;2.50;2.30;;;;;;;;;;5067247;28;20252;-82
2023/10/18 14:14:19;;;;;;;2.53;2.03;;;;;;;;;;5071911;28;20213;-82
2023/10/18 14:16:46;;;;;;;4.93;2.10;;;;;;;;;;5071652;28;20247;-82
2023/10/18 14:19:18;;;;;;;2.83;2.57;;;;;;;;;;5071816;28;20271;-80
2023/10/18 14:21:48;;;;;;;1.97;1.87;;;;;;;;;;5071340;28;20225;-80
2023/10/18 14:24:17;;;;;;;2.40;1.90;;;;;;;;;;5053062;28;20296;-81
2023/10/18 14:26:44;;;;;;;3.17;2.50;;;;;;;;;;5051513;28;20692;-80
2023/10/18 14:29:11;;;;;;;2.40;2.20;;;;;;;;;;5051574;28;20226;-81
2023/10/18 14:31:38;;;;;;;5.37;2.40;;;;;;;;;;5051220;28;20309;-80
2023/10/18 14:34:05;;;;;;;1.93;1.83;;;;;;;;;;5052551;28;20202;-80
2023/10/18 14:36:33;;;;;;;7.53;2.20;;;;;;;;;;5071462;28;20279;-80
2023/10/18 14:39:03;;;;;;;3.53;2.40;;;;;;;;;;5071367;28;20229;-80
2023/10/18 14:41:30;;;;;;;2.67;2.43;;;;;;;;;;5071076;28;20225;-80
2023/10/18 14:43:57;;;;;;;2.53;2.07;;;;;;;;;;5071594;28;20210;-80
2023/10/18 14:46:26;;;;;;;2.10;1.97;;;;;;;;;;5042884;28;20229;-80
2023/10/18 14:48:56;;;;;;;2.43;2.27;;;;;;;;;;5051466;28;20230;-80
2023/10/18 14:51:24;;;;;;;2.93;2.60;;;;;;;;;;5050738;28;20229;-80
2023/10/18 14:53:52;;;;;;;2.27;2.13;;;;;;;;;;5051532;28;20210;-80
2023/10/18 14:56:22;;;;;;;3.17;2.37;;;;;;;;;;5070328;28;20257;-80
2023/10/18 14:58:50;;;;;;;1.97;1.87;;;;;;;;;;5071470;28;20226;-80
2023/10/18 15:01:17;;;;;;;2.47;2.27;;;;;;;;;;5051765;28;20230;-82
2023/10/18 15:03:45;;;;;;;5.00;2.10;;;;;;;;;;5069872;28;20292;-83
2023/10/18 15:06:16;;;;;;;3.77;2.50;;;;;;;;;;5070825;28;20224;-85
2023/10/18 15:08:44;;;;;;;2.80;2.27;;;;;;;;;;5071316;28;20778;-83
2023/10/18 15:11:13;;;;;;;2.60;2.40;;;;;;;;;;5070305;28;20240;-83
2023/10/18 15:13:43;;;;;;;2.70;2.50;;;;;;;;;;5058702;28;20258;-83